createdAt,value
2022-09-30T00:01:01.208Z,20.85
2022-09-30T00:03:28.877Z,20.85
2022-09-30T00:05:58.384Z,20.85
2022-09-30T00:08:24.951Z,20.82
2022-09-30T00:11:04.642Z,20.82
2022-09-30T00:13:31.849Z,20.83
2022-09-30T00:15:58.351Z,20.83
2022-09-30T00:18:24.704Z,20.82
2022-09-30T00:20:51.021Z,20.82
2022-09-30T00:23:17.338Z,20.83
2022-09-30T00:25:43.645Z,20.82
2022-09-30T00:28:10.021Z,20.81
2022-09-30T00:30:36.326Z,20.81
2022-09-30T00:33:02.659Z,20.79
2022-09-30T00:35:29.001Z,20.80
2022-09-30T00:37:55.332Z,20.79
2022-09-30T00:40:21.642Z,20.79
2022-09-30T00:42:47.969Z,20.79
2022-09-30T00:45:14.354Z,20.80
2022-09-30T00:48:04.852Z,20.79
2022-09-30T00:50:33.067Z,20.77
2022-09-30T00:53:10.399Z,20.76
2022-09-30T00:55:36.730Z,20.78
2022-09-30T00:58:03.170Z,20.76
2022-09-30T01:00:29.679Z,20.76
2022-09-30T01:02:56.066Z,20.76
2022-09-30T01:05:23.038Z,20.74
2022-09-30T01:07:49.497Z,20.77
2022-09-30T01:10:15.922Z,20.74
2022-09-30T01:12:42.269Z,20.73
2022-09-30T01:15:09.568Z,20.72
2022-09-30T01:17:43.014Z,20.72
2022-09-30T01:20:27.036Z,20.73
2022-09-30T01:23:02.897Z,20.71
2022-09-30T01:25:34.812Z,20.74
2022-09-30T01:28:01.061Z,20.71
2022-09-30T01:30:45.757Z,20.71
2022-09-30T01:33:17.734Z,20.71
2022-09-30T01:35:51.393Z,20.71
2022-09-30T01:38:24.993Z,20.68
2022-09-30T01:40:58.798Z,20.69
2022-09-30T01:43:32.153Z,20.67
2022-09-30T01:46:15.023Z,20.67
2022-09-30T01:48:44.326Z,20.69
2022-09-30T01:51:18.085Z,20.69
2022-09-30T01:53:49.667Z,20.68
2022-09-30T01:56:15.901Z,20.66
2022-09-30T01:58:43.273Z,20.68
2022-09-30T02:01:11.742Z,20.65
2022-09-30T02:03:40.042Z,20.65
2022-09-30T02:06:10.459Z,20.63
2022-09-30T02:08:42.925Z,20.66
2022-09-30T02:11:10.798Z,20.67
2022-09-30T02:13:39.542Z,20.65
2022-09-30T02:16:12.800Z,20.63
2022-09-30T02:18:41.469Z,20.65
2022-09-30T02:21:07.802Z,20.65
2022-09-30T02:23:35.173Z,20.65
2022-09-30T02:26:21.675Z,20.65
2022-09-30T02:28:49.604Z,20.64
2022-09-30T02:31:16.029Z,20.63
2022-09-30T02:33:43.572Z,20.64
2022-09-30T02:36:11.062Z,20.64
2022-09-30T02:38:39.211Z,20.64
2022-09-30T02:41:10.378Z,20.65
2022-09-30T02:43:36.723Z,20.67
2022-09-30T02:46:10.890Z,20.70
2022-09-30T02:48:47.828Z,20.71
2022-09-30T02:51:18.697Z,20.73
2022-09-30T02:54:01.698Z,20.74
2022-09-30T02:56:40.066Z,20.75
2022-09-30T02:59:06.390Z,20.75
2022-09-30T03:01:32.764Z,20.75
2022-09-30T03:03:59.743Z,20.74
2022-09-30T03:06:26.046Z,20.75
2022-09-30T03:08:53.000Z,20.75
2022-09-30T03:11:22.714Z,20.76
2022-09-30T03:13:59.902Z,20.76
2022-09-30T03:16:30.707Z,20.75
2022-09-30T03:19:04.530Z,20.79
2022-09-30T03:21:49.433Z,20.81
2022-09-30T03:24:23.223Z,20.80
2022-09-30T03:26:58.490Z,20.80
2022-09-30T03:29:43.452Z,20.82
2022-09-30T03:32:24.446Z,20.82
2022-09-30T03:34:57.715Z,20.79
2022-09-30T03:37:27.136Z,20.82
2022-09-30T03:40:01.232Z,20.83
2022-09-30T03:42:29.171Z,20.83
2022-09-30T03:45:09.854Z,20.82
2022-09-30T03:47:38.806Z,20.84
2022-09-30T03:50:06.576Z,20.87
2022-09-30T03:52:32.896Z,20.87
2022-09-30T03:54:59.637Z,20.86
2022-09-30T03:57:28.596Z,20.54
2022-09-30T03:59:55.309Z,20.66
2022-09-30T04:02:21.662Z,20.76
2022-09-30T04:04:48.002Z,20.79
2022-09-30T04:07:14.340Z,20.81
2022-09-30T04:09:40.839Z,20.83
2022-09-30T04:12:07.305Z,20.83
2022-09-30T04:14:34.320Z,20.85
2022-09-30T04:17:00.651Z,20.86
2022-09-30T04:19:26.952Z,20.87
2022-09-30T04:21:53.515Z,20.86
2022-09-30T04:24:20.413Z,20.86
2022-09-30T04:26:46.823Z,20.86
2022-09-30T04:29:13.145Z,20.86
2022-09-30T04:31:39.539Z,20.85
2022-09-30T04:34:06.219Z,20.86
2022-09-30T04:36:32.532Z,20.85
2022-09-30T04:38:59.864Z,20.91
2022-09-30T04:41:26.748Z,20.88
2022-09-30T04:43:53.064Z,20.90
2022-09-30T04:46:19.928Z,20.92
2022-09-30T04:48:46.309Z,20.93
2022-09-30T04:51:13.217Z,20.93
2022-09-30T04:53:39.897Z,20.94
2022-09-30T04:56:06.221Z,20.93
2022-09-30T04:58:36.801Z,20.93
2022-09-30T05:01:03.814Z,20.93
2022-09-30T05:03:30.151Z,20.96
2022-09-30T05:05:56.453Z,20.98
2022-09-30T05:08:23.027Z,21.03
2022-09-30T05:10:57.216Z,21.07
2022-09-30T05:13:24.248Z,21.17
2022-09-30T05:15:50.621Z,21.11
2022-09-30T05:18:16.973Z,21.06
2022-09-30T05:20:43.597Z,20.59
2022-09-30T05:23:09.910Z,20.80
2022-09-30T05:25:36.230Z,20.83
2022-09-30T05:28:02.550Z,20.78
2022-09-30T05:30:28.853Z,20.75
2022-09-30T05:32:55.158Z,20.61
2022-09-30T05:35:21.463Z,20.66
2022-09-30T05:37:47.797Z,20.65
2022-09-30T05:40:14.121Z,20.57
2022-09-30T05:42:40.440Z,20.55
2022-09-30T05:45:06.921Z,20.60
2022-09-30T05:47:33.457Z,20.51
2022-09-30T05:50:19.767Z,20.83
2022-09-30T05:52:46.238Z,21.03
2022-09-30T05:55:12.555Z,20.99
2022-09-30T05:57:39.302Z,20.82
2022-09-30T06:00:06.818Z,20.98
2022-09-30T06:02:38.534Z,21.03
2022-09-30T06:05:05.354Z,21.01
2022-09-30T06:07:32.789Z,21.01
2022-09-30T06:09:59.110Z,21.03
2022-09-30T06:12:27.354Z,21.06
2022-09-30T06:14:53.663Z,20.82
2022-09-30T06:17:19.978Z,20.75
2022-09-30T06:19:46.301Z,20.07
2022-09-30T06:22:12.638Z,19.62
2022-09-30T06:24:38.956Z,19.51
2022-09-30T06:27:05.854Z,19.50
2022-09-30T06:29:32.170Z,19.43
2022-09-30T06:31:58.589Z,19.59
2022-09-30T06:34:24.975Z,20.06
2022-09-30T06:36:51.318Z,20.35
2022-09-30T06:39:17.632Z,20.37
2022-09-30T06:41:44.117Z,20.23
2022-09-30T06:44:13.429Z,20.01
2022-09-30T06:46:51.528Z,20.24
2022-09-30T06:49:19.765Z,20.42
2022-09-30T06:51:46.091Z,20.50
2022-09-30T06:54:13.519Z,20.53
2022-09-30T06:56:39.836Z,20.56
2022-09-30T06:59:06.942Z,20.58
2022-09-30T07:01:33.273Z,20.61
2022-09-30T07:03:59.614Z,20.62
2022-09-30T07:06:29.125Z,20.63
2022-09-30T07:08:56.792Z,20.66
2022-09-30T07:11:23.944Z,20.64
2022-09-30T07:13:50.253Z,20.64
2022-09-30T07:16:17.435Z,20.67
2022-09-30T07:18:44.902Z,20.68
2022-09-30T07:21:13.446Z,20.68
2022-09-30T07:23:45.565Z,20.69
2022-09-30T07:26:11.885Z,20.68
2022-09-30T07:28:39.406Z,20.71
2022-09-30T07:31:31.551Z,20.72
2022-09-30T07:33:56.788Z,20.71
2022-09-30T07:36:32.116Z,20.73
2022-09-30T07:39:00.253Z,20.75
2022-09-30T07:41:29.970Z,20.73
2022-09-30T07:43:56.608Z,20.54
2022-09-30T07:46:27.520Z,21.12
2022-09-30T07:48:54.857Z,21.31
2022-09-30T07:51:22.705Z,21.44
2022-09-30T07:53:49.852Z,21.37
2022-09-30T07:56:16.263Z,21.21
2022-09-30T07:58:42.701Z,21.36
2022-09-30T08:01:09.086Z,21.45
2022-09-30T08:03:39.230Z,21.46
2022-09-30T08:06:12.575Z,21.43
2022-09-30T08:08:38.919Z,21.43
2022-09-30T08:11:06.827Z,21.42
2022-09-30T08:13:33.141Z,21.36
2022-09-30T08:15:59.484Z,21.43
2022-09-30T08:18:25.861Z,21.41
2022-09-30T08:20:52.172Z,21.61
2022-09-30T08:23:18.509Z,21.75
2022-09-30T08:25:44.927Z,21.43
2022-09-30T08:28:11.329Z,21.20
2022-09-30T08:30:37.732Z,21.11
2022-09-30T08:33:04.121Z,21.06
2022-09-30T08:35:30.435Z,21.08
2022-09-30T08:37:56.741Z,21.08
2022-09-30T08:40:30.743Z,21.06
2022-09-30T08:43:03.755Z,21.07
2022-09-30T08:45:39.076Z,21.06
2022-09-30T08:50:48.870Z,21.09
2022-09-30T08:53:23.951Z,21.04
2022-09-30T08:55:50.274Z,21.07
2022-09-30T08:58:20.106Z,21.08
2022-09-30T09:00:46.730Z,21.10
2022-09-30T09:03:13.080Z,21.07
2022-09-30T09:05:51.695Z,21.07
2022-09-30T09:08:21.912Z,21.09
2022-09-30T09:10:51.094Z,21.32
2022-09-30T09:13:26.462Z,21.75
2022-09-30T09:15:57.365Z,21.62
2022-09-30T09:18:27.721Z,21.42
2022-09-30T09:20:55.255Z,21.43
2022-09-30T09:23:21.979Z,21.29
2022-09-30T09:25:50.851Z,21.29
2022-09-30T09:28:22.799Z,21.40
2022-09-30T09:30:51.408Z,21.38
2022-09-30T09:33:25.741Z,21.36
2022-09-30T09:36:10.778Z,21.41
2022-09-30T09:38:44.950Z,21.44
2022-09-30T09:41:14.283Z,21.42
2022-09-30T09:43:51.047Z,21.45
2022-09-30T09:46:20.967Z,21.58
2022-09-30T09:48:47.347Z,21.67
2022-09-30T09:51:16.301Z,21.65
2022-09-30T09:53:49.881Z,21.69
2022-09-30T09:56:37.849Z,21.64
2022-09-30T09:59:19.410Z,21.69
2022-09-30T10:01:50.464Z,21.66
2022-09-30T10:04:23.611Z,21.34
2022-09-30T10:06:54.024Z,21.27
2022-09-30T10:09:28.058Z,21.57
2022-09-30T10:12:06.700Z,21.75
2022-09-30T10:14:36.651Z,21.80
2022-09-30T10:17:03.731Z,21.76
2022-09-30T10:19:30.685Z,21.80
2022-09-30T10:22:08.878Z,21.89
2022-09-30T10:24:38.323Z,21.77
2022-09-30T10:27:04.771Z,21.71
2022-09-30T10:29:31.994Z,21.64
2022-09-30T10:32:02.387Z,21.55
2022-09-30T10:34:28.704Z,21.60
2022-09-30T10:36:55.352Z,21.57
2022-09-30T10:39:24.943Z,21.66
2022-09-30T10:41:51.929Z,21.63
2022-09-30T10:44:21.808Z,21.60
2022-09-30T10:46:48.603Z,21.58
2022-09-30T10:49:28.259Z,22.06
2022-09-30T10:51:55.265Z,22.21
2022-09-30T10:54:33.185Z,22.28
2022-09-30T10:57:01.042Z,22.27
2022-09-30T10:59:30.067Z,22.28
2022-09-30T11:02:01.971Z,22.29
2022-09-30T11:04:33.970Z,22.25
2022-09-30T11:07:02.052Z,22.19
2022-09-30T11:09:44.540Z,22.26
2022-09-30T11:12:11.032Z,21.76
2022-09-30T11:14:39.597Z,21.70
2022-09-30T11:17:10.873Z,21.85
2022-09-30T11:19:43.482Z,22.01
2022-09-30T11:22:26.369Z,22.05
2022-09-30T11:24:52.710Z,22.04
2022-09-30T11:27:22.308Z,21.92
2022-09-30T11:29:51.530Z,22.02
2022-09-30T11:32:23.876Z,22.04
2022-09-30T11:35:02.974Z,22.13
2022-09-30T11:37:50.202Z,22.23
2022-09-30T11:40:24.716Z,21.98
2022-09-30T11:42:55.384Z,21.90
2022-09-30T11:45:21.787Z,21.91
2022-09-30T11:47:48.285Z,21.89
2022-09-30T11:50:25.994Z,21.80
2022-09-30T11:52:55.531Z,21.75
2022-09-30T11:55:37.182Z,21.70
2022-09-30T11:58:22.388Z,21.79
2022-09-30T12:00:52.504Z,21.87
2022-09-30T12:03:30.158Z,22.04
2022-09-30T12:05:57.457Z,22.18
2022-09-30T12:08:36.491Z,22.29
2022-09-30T12:11:13.667Z,22.30
2022-09-30T12:13:41.262Z,22.34
2022-09-30T12:16:09.991Z,22.37
2022-09-30T12:18:37.628Z,22.24
2022-09-30T12:21:07.446Z,22.56
2022-09-30T12:23:35.668Z,22.51
2022-09-30T12:26:02.265Z,22.32
2022-09-30T12:28:49.372Z,22.06
2022-09-30T12:31:27.897Z,22.03
2022-09-30T12:34:09.581Z,22.02
2022-09-30T12:36:42.286Z,21.96
2022-09-30T12:39:23.063Z,21.95
2022-09-30T12:41:52.977Z,21.96
2022-09-30T12:44:31.167Z,21.96
2022-09-30T12:47:16.331Z,21.95
2022-09-30T12:49:42.638Z,21.96
2022-09-30T12:52:16.133Z,21.90
2022-09-30T12:55:02.785Z,21.93
2022-09-30T12:57:32.611Z,21.96
2022-09-30T13:00:03.319Z,21.92
2022-09-30T13:02:36.522Z,22.11
2022-09-30T13:05:28.109Z,22.28
2022-09-30T13:08:03.629Z,22.35
2022-09-30T13:10:33.050Z,22.36
2022-09-30T13:13:19.758Z,22.28
2022-09-30T13:15:46.260Z,22.26
2022-09-30T13:18:21.478Z,22.24
2022-09-30T13:20:57.668Z,22.49
2022-09-30T13:23:43.195Z,22.53
2022-09-30T13:26:28.755Z,22.52
2022-09-30T13:29:16.115Z,22.61
2022-09-30T13:31:45.397Z,22.70
2022-09-30T13:34:12.499Z,22.72
2022-09-30T13:36:39.583Z,22.77
2022-09-30T13:39:16.508Z,22.74
2022-09-30T13:41:42.817Z,22.79
2022-09-30T13:44:10.349Z,22.82
2022-09-30T13:46:39.886Z,22.88
2022-09-30T13:49:10.724Z,22.91
2022-09-30T13:51:37.976Z,22.84
2022-09-30T13:54:08.504Z,22.89
2022-09-30T13:56:35.182Z,22.89
2022-09-30T13:59:09.834Z,22.91
2022-09-30T14:01:36.225Z,22.92
2022-09-30T14:04:17.058Z,22.87
2022-09-30T14:06:45.322Z,22.84
2022-09-30T14:09:18.849Z,22.83
2022-09-30T14:11:49.704Z,22.87
2022-09-30T14:14:21.959Z,23.03
2022-09-30T14:16:52.534Z,23.09
2022-09-30T14:19:35.821Z,23.06
2022-09-30T14:22:03.675Z,22.95
2022-09-30T14:24:35.103Z,23.03
2022-09-30T14:27:22.511Z,23.11
2022-09-30T14:30:02.245Z,23.13
2022-09-30T14:32:29.032Z,23.07
2022-09-30T14:34:55.378Z,23.06
2022-09-30T14:37:24.464Z,23.04
2022-09-30T14:39:50.790Z,23.06
2022-09-30T14:42:24.475Z,23.02
2022-09-30T14:44:50.810Z,22.95
2022-09-30T14:47:17.169Z,23.08
2022-09-30T14:49:43.981Z,23.12
2022-09-30T14:52:28.975Z,23.10
2022-09-30T14:54:55.319Z,23.09
2022-09-30T14:57:23.646Z,23.05
2022-09-30T14:59:49.967Z,23.13
2022-09-30T15:02:18.354Z,23.09
2022-09-30T15:04:48.501Z,23.06
2022-09-30T15:07:14.973Z,23.13
2022-09-30T15:09:43.452Z,22.94
2022-09-30T15:12:14.014Z,23.05
2022-09-30T15:14:50.061Z,23.08
2022-09-30T15:17:19.734Z,23.19
2022-09-30T15:19:46.126Z,23.10
2022-09-30T15:22:13.131Z,23.13
2022-09-30T15:24:40.413Z,23.00
2022-09-30T15:27:13.615Z,23.05
2022-09-30T15:29:53.537Z,23.07
2022-09-30T15:32:21.132Z,23.11
2022-09-30T15:34:47.496Z,23.06
2022-09-30T15:37:20.544Z,23.06
2022-09-30T15:40:05.667Z,23.03
2022-09-30T15:42:35.199Z,22.97
2022-09-30T15:45:04.747Z,23.08
2022-09-30T15:47:31.099Z,23.07
2022-09-30T15:49:57.461Z,23.01
2022-09-30T15:52:30.568Z,22.97
2022-09-30T15:54:57.114Z,23.08
2022-09-30T15:57:40.147Z,23.13
2022-09-30T16:00:08.560Z,23.06
2022-09-30T16:02:34.990Z,23.02
2022-09-30T16:05:05.302Z,23.03
2022-09-30T16:07:31.881Z,22.94
2022-09-30T16:09:59.169Z,22.93
2022-09-30T16:12:32.172Z,23.09
2022-09-30T16:14:59.976Z,22.99
2022-09-30T16:17:33.520Z,22.94
2022-09-30T16:20:00.481Z,22.87
2022-09-30T16:22:42.036Z,22.88
2022-09-30T16:25:28.105Z,22.95
2022-09-30T16:28:13.667Z,22.92
2022-09-30T16:30:46.857Z,22.46
2022-09-30T16:33:13.591Z,21.40
2022-09-30T16:35:41.062Z,20.25
2022-09-30T16:38:07.399Z,20.09
2022-09-30T16:40:35.566Z,19.87
2022-09-30T16:43:07.105Z,19.72
2022-09-30T16:45:34.071Z,19.57
2022-09-30T16:48:01.612Z,19.09
2022-09-30T16:50:48.020Z,19.12
2022-09-30T16:53:14.355Z,18.51
2022-09-30T16:55:40.773Z,18.28
2022-09-30T16:58:09.327Z,18.18
2022-09-30T17:00:35.769Z,19.62
2022-09-30T17:03:02.203Z,20.18
2022-09-30T17:05:28.521Z,20.31
2022-09-30T17:07:58.329Z,20.32
2022-09-30T17:10:25.800Z,20.35
2022-09-30T17:12:52.115Z,20.31
2022-09-30T17:15:18.689Z,20.33
2022-09-30T17:17:45.206Z,20.58
2022-09-30T17:20:11.513Z,20.97
2022-09-30T17:22:37.883Z,21.13
2022-09-30T17:25:04.254Z,21.07
2022-09-30T17:27:30.579Z,21.34
2022-09-30T17:29:56.922Z,21.43
2022-09-30T17:32:23.331Z,21.32
2022-09-30T17:34:50.098Z,21.36
2022-09-30T17:37:16.413Z,21.17
2022-09-30T17:39:42.726Z,21.11
2022-09-30T17:42:31.059Z,21.21
2022-09-30T17:44:57.424Z,20.92
2022-09-30T17:47:23.791Z,21.18
2022-09-30T17:49:50.107Z,21.18
2022-09-30T17:52:18.056Z,21.18
2022-09-30T17:54:46.641Z,21.06
2022-09-30T17:57:16.212Z,21.12
2022-09-30T17:59:46.510Z,21.29
2022-09-30T18:02:15.172Z,21.25
2022-09-30T18:04:41.601Z,21.23
2022-09-30T18:07:10.182Z,21.23
2022-09-30T18:09:37.857Z,21.26
2022-09-30T18:12:04.603Z,21.29
2022-09-30T18:14:36.034Z,21.10
2022-09-30T18:17:02.930Z,21.17
2022-09-30T18:19:29.247Z,21.25
2022-09-30T18:21:55.697Z,21.41
2022-09-30T18:24:41.972Z,21.47
2022-09-30T18:27:08.282Z,21.53
2022-09-30T18:29:34.657Z,21.56
2022-09-30T18:32:01.725Z,21.41
2022-09-30T18:34:28.117Z,21.38
2022-09-30T18:36:54.488Z,21.33
2022-09-30T18:39:21.584Z,21.40
2022-09-30T18:41:48.681Z,21.28
2022-09-30T18:44:15.179Z,21.20
2022-09-30T18:46:42.885Z,21.19
2022-09-30T18:49:10.603Z,21.20
2022-09-30T18:51:36.981Z,21.17
2022-09-30T18:54:05.580Z,21.17
2022-09-30T18:56:32.376Z,21.20
2022-09-30T18:59:00.228Z,21.19
2022-09-30T19:01:27.659Z,21.22
2022-09-30T19:03:54.117Z,21.26
2022-09-30T19:06:20.446Z,21.42
2022-09-30T19:08:46.778Z,21.42
2022-09-30T19:11:17.468Z,21.36
2022-09-30T19:13:44.378Z,21.41
2022-09-30T19:16:11.171Z,21.43
2022-09-30T19:18:39.138Z,21.47
2022-09-30T19:21:10.082Z,21.47
2022-09-30T19:23:36.704Z,21.42
2022-09-30T19:26:03.142Z,21.57
2022-09-30T19:28:31.152Z,21.62
2022-09-30T19:31:00.059Z,21.64
2022-09-30T19:33:27.233Z,21.69
2022-09-30T19:36:14.884Z,21.67
2022-09-30T19:38:42.325Z,21.52
2022-09-30T19:41:08.890Z,21.63
2022-09-30T19:43:35.440Z,21.67
2022-09-30T19:46:02.585Z,21.67
2022-09-30T19:48:29.316Z,21.70
2022-09-30T19:50:58.398Z,21.66
2022-09-30T19:53:30.717Z,21.64
2022-09-30T19:56:04.642Z,21.57
2022-09-30T19:58:34.483Z,21.54
2022-09-30T20:01:01.317Z,21.70
2022-09-30T20:03:29.301Z,21.65
2022-09-30T20:06:05.712Z,21.74
2022-09-30T20:08:32.671Z,21.77
2022-09-30T20:11:03.173Z,21.84
2022-09-30T20:13:29.595Z,21.91
2022-09-30T20:15:58.164Z,21.70
2022-09-30T20:18:24.550Z,21.57
2022-09-30T20:20:50.909Z,21.53
2022-09-30T20:23:17.591Z,21.54
2022-09-30T20:25:43.892Z,21.75
2022-09-30T20:28:10.276Z,21.78
2022-09-30T20:30:45.267Z,21.68
2022-09-30T20:33:12.427Z,21.77
2022-09-30T20:35:38.978Z,21.80
2022-09-30T20:38:06.729Z,21.94
2022-09-30T20:40:33.196Z,21.96
2022-09-30T20:43:01.696Z,21.98
2022-09-30T20:45:28.423Z,21.97
2022-09-30T20:47:55.227Z,22.00
2022-09-30T20:50:35.001Z,21.99
2022-09-30T20:53:04.934Z,22.06
2022-09-30T20:55:33.113Z,22.12
2022-09-30T20:57:59.426Z,22.13
2022-09-30T21:00:25.735Z,22.12
2022-09-30T21:02:52.294Z,22.11
2022-09-30T21:05:18.612Z,22.09
2022-09-30T21:07:45.048Z,22.06
2022-09-30T21:10:11.554Z,22.03
2022-09-30T21:12:38.207Z,21.95
2022-09-30T21:15:04.767Z,21.98
2022-09-30T21:17:31.727Z,21.92
2022-09-30T21:19:58.639Z,21.65
2022-09-30T21:22:24.951Z,21.52
2022-09-30T21:24:51.261Z,21.59
2022-09-30T21:27:17.568Z,21.56
2022-09-30T21:29:43.872Z,21.55
2022-09-30T21:32:10.318Z,21.56
2022-09-30T21:34:36.704Z,21.53
2022-09-30T21:37:03.092Z,21.52
2022-09-30T21:39:29.418Z,21.50
2022-09-30T21:41:55.909Z,21.46
2022-09-30T21:44:22.209Z,21.46
2022-09-30T21:46:50.239Z,21.44
2022-09-30T21:49:17.367Z,21.34
2022-09-30T21:51:43.691Z,21.03
2022-09-30T21:54:11.620Z,21.08
2022-09-30T21:56:38.223Z,21.06
2022-09-30T21:59:04.691Z,21.06
2022-09-30T22:01:31.378Z,20.99
2022-09-30T22:03:57.907Z,20.57
2022-09-30T22:06:24.294Z,19.99
2022-09-30T22:08:50.949Z,19.91
2022-09-30T22:11:18.202Z,20.11
2022-09-30T22:13:45.071Z,20.24
2022-09-30T22:16:11.857Z,20.59
2022-09-30T22:18:38.640Z,20.81
2022-09-30T22:21:05.748Z,20.88
2022-09-30T22:23:32.075Z,20.95
2022-09-30T22:25:58.516Z,20.96
2022-09-30T22:28:24.860Z,20.97
2022-09-30T22:30:51.219Z,20.96
2022-09-30T22:33:36.153Z,20.97
2022-09-30T22:36:21.011Z,20.98
2022-09-30T22:38:48.486Z,20.96
2022-09-30T22:41:16.046Z,20.97
2022-09-30T22:43:42.371Z,20.97
2022-09-30T22:46:08.741Z,20.98
2022-09-30T22:48:35.256Z,20.99
2022-09-30T22:51:01.755Z,20.97
2022-09-30T22:53:28.094Z,20.97
2022-09-30T22:55:54.478Z,20.97
2022-09-30T22:58:20.967Z,20.98
2022-09-30T23:00:57.394Z,20.97
2022-09-30T23:03:25.347Z,20.97
2022-09-30T23:05:52.308Z,20.97
2022-09-30T23:08:18.636Z,20.97
2022-09-30T23:10:45.562Z,20.97
2022-09-30T23:13:13.251Z,20.96
2022-09-30T23:15:39.565Z,20.95
2022-09-30T23:18:05.897Z,20.93
2022-09-30T23:20:32.442Z,20.95
2022-09-30T23:22:58.800Z,20.95
2022-09-30T23:25:25.141Z,20.93
2022-09-30T23:27:51.552Z,20.95
2022-09-30T23:30:17.922Z,20.94
2022-09-30T23:32:44.274Z,20.92
2022-09-30T23:35:10.593Z,20.93
2022-09-30T23:37:36.926Z,20.91
2022-09-30T23:40:03.249Z,20.92
2022-09-30T23:42:31.872Z,20.91
2022-09-30T23:44:58.196Z,20.90
2022-09-30T23:47:24.509Z,20.90
2022-09-30T23:49:50.912Z,20.89
2022-09-30T23:52:17.778Z,20.90
2022-09-30T23:54:44.126Z,20.89
2022-09-30T23:57:10.692Z,20.89
2022-09-30T23:59:37.723Z,20.88
